sensor_id;sensor_type;location;lat;lon;timestamp;pressure;altitude;pressure_sealevel;temperature;humidity
5777;BME280;2914;42.668;23.346;2023-05-02T00:01:44;94816.27;;;13.74;78.72
5777;BME280;2914;42.668;23.346;2023-05-02T00:04:13;94820.41;;;13.54;79.88
5777;BME280;2914;42.668;23.346;2023-05-02T00:06:42;94820.63;;;13.61;79.66
5777;BME280;2914;42.668;23.346;2023-05-02T00:09:12;94819.46;;;13.60;79.85
5777;BME280;2914;42.668;23.346;2023-05-02T00:11:42;94822.17;;;13.46;80.63
5777;BME280;2914;42.668;23.346;2023-05-02T00:14:11;94827.31;;;13.47;80.72
5777;BME280;2914;42.668;23.346;2023-05-02T00:16:40;94823.05;;;13.54;80.21
5777;BME280;2914;42.668;23.346;2023-05-02T00:19:09;94820.25;;;13.52;80.54
5777;BME280;2914;42.668;23.346;2023-05-02T00:24:17;94820.69;;;13.47;81.36
5777;BME280;2914;42.668;23.346;2023-05-02T00:26:46;94829.93;;;13.43;81.21
5777;BME280;2914;42.668;23.346;2023-05-02T00:29:16;94828.80;;;13.46;81.17
5777;BME280;2914;42.668;23.346;2023-05-02T00:31:45;94826.83;;;13.34;82.01
5777;BME280;2914;42.668;23.346;2023-05-02T00:34:14;94828.57;;;13.39;81.97
5777;BME280;2914;42.668;23.346;2023-05-02T00:36:43;94826.67;;;13.31;82.58
5777;BME280;2914;42.668;23.346;2023-05-02T00:39:12;94839.92;;;13.31;82.74
5777;BME280;2914;42.668;23.346;2023-05-02T00:41:41;94843.85;;;13.27;83.07
5777;BME280;2914;42.668;23.346;2023-05-02T00:44:10;94843.34;;;13.28;83.48
5777;BME280;2914;42.668;23.346;2023-05-02T00:46:39;94843.39;;;13.32;83.41
5777;BME280;2914;42.668;23.346;2023-05-02T00:49:08;94838.54;;;13.41;83.00
5777;BME280;2914;42.668;23.346;2023-05-02T00:54:15;94848.04;;;13.48;82.99
5777;BME280;2914;42.668;23.346;2023-05-02T00:56:45;94858.92;;;13.45;83.13
5777;BME280;2914;42.668;23.346;2023-05-02T00:59:15;94860.88;;;13.38;83.50
5777;BME280;2914;42.668;23.346;2023-05-02T01:01:54;94861.23;;;13.30;84.23
5777;BME280;2914;42.668;23.346;2023-05-02T01:04:29;94849.39;;;13.20;84.86
5777;BME280;2914;42.668;23.346;2023-05-02T01:07:04;94855.39;;;13.22;84.93
5777;BME280;2914;42.668;23.346;2023-05-02T01:09:39;94859.28;;;13.14;85.61
5777;BME280;2914;42.668;23.346;2023-05-02T01:12:14;94848.57;;;13.19;85.58
5777;BME280;2914;42.668;23.346;2023-05-02T01:14:46;94855.08;;;13.25;85.35
5777;BME280;2914;42.668;23.346;2023-05-02T01:17:15;94854.33;;;13.15;85.90
5777;BME280;2914;42.668;23.346;2023-05-02T01:19:48;94852.11;;;13.10;86.36
5777;BME280;2914;42.668;23.346;2023-05-02T01:22:17;94854.65;;;13.16;86.48
5777;BME280;2914;42.668;23.346;2023-05-02T01:24:53;94850.01;;;13.14;86.66
5777;BME280;2914;42.668;23.346;2023-05-02T01:27:27;94850.75;;;13.24;86.08
5777;BME280;2914;42.668;23.346;2023-05-02T01:29:56;94844.41;;;13.17;86.49
5777;BME280;2914;42.668;23.346;2023-05-02T01:32:26;94845.91;;;13.01;87.30
5777;BME280;2914;42.668;23.346;2023-05-02T01:34:58;94841.56;;;13.14;86.69
5777;BME280;2914;42.668;23.346;2023-05-02T01:37:29;94842.38;;;13.11;86.83
5777;BME280;2914;42.668;23.346;2023-05-02T01:39:59;94851.60;;;13.06;87.37
5777;BME280;2914;42.668;23.346;2023-05-02T01:42:30;94858.26;;;12.97;88.01
5777;BME280;2914;42.668;23.346;2023-05-02T01:45:02;94852.41;;;12.89;88.74
5777;BME280;2914;42.668;23.346;2023-05-02T01:47:33;94844.52;;;12.79;89.41
5777;BME280;2914;42.668;23.346;2023-05-02T01:50:04;94850.95;;;12.63;90.50
5777;BME280;2914;42.668;23.346;2023-05-02T01:52:34;94848.48;;;12.51;91.46
5777;BME280;2914;42.668;23.346;2023-05-02T01:55:07;94874.12;;;12.51;91.73
5777;BME280;2914;42.668;23.346;2023-05-02T01:57:38;94856.37;;;12.47;92.12
5777;BME280;2914;42.668;23.346;2023-05-02T02:00:11;94853.55;;;12.59;91.57
5777;BME280;2914;42.668;23.346;2023-05-02T02:02:42;94843.80;;;12.59;91.52
5777;BME280;2914;42.668;23.346;2023-05-02T02:05:13;94843.14;;;12.47;92.13
5777;BME280;2914;42.668;23.346;2023-05-02T02:07:43;94845.88;;;12.42;92.64
5777;BME280;2914;42.668;23.346;2023-05-02T02:10:13;94856.91;;;12.37;93.22
5777;BME280;2914;42.668;23.346;2023-05-02T02:12:44;94852.79;;;12.25;93.74
5777;BME280;2914;42.668;23.346;2023-05-02T02:17:57;94850.70;;;12.28;93.99
5777;BME280;2914;42.668;23.346;2023-05-02T02:20:28;94839.62;;;12.29;93.80
5777;BME280;2914;42.668;23.346;2023-05-02T02:23:00;94832.84;;;12.16;94.42
5777;BME280;2914;42.668;23.346;2023-05-02T02:25:32;94841.33;;;12.20;94.44
5777;BME280;2914;42.668;23.346;2023-05-02T02:28:01;94842.27;;;12.29;93.83
5777;BME280;2914;42.668;23.346;2023-05-02T02:30:31;94835.39;;;12.22;93.97
5777;BME280;2914;42.668;23.346;2023-05-02T02:33:01;94842.00;;;12.22;93.84
5777;BME280;2914;42.668;23.346;2023-05-02T02:35:33;94845.05;;;12.13;94.13
5777;BME280;2914;42.668;23.346;2023-05-02T02:38:07;94840.22;;;12.13;94.58
5777;BME280;2914;42.668;23.346;2023-05-02T02:40:41;94842.06;;;12.26;93.76
5777;BME280;2914;42.668;23.346;2023-05-02T02:43:16;94847.89;;;12.16;94.04
5777;BME280;2914;42.668;23.346;2023-05-02T02:45:46;94844.65;;;12.22;93.44
5777;BME280;2914;42.668;23.346;2023-05-02T02:48:19;94854.93;;;12.25;93.17
5777;BME280;2914;42.668;23.346;2023-05-02T02:50:56;94850.80;;;12.13;93.87
5777;BME280;2914;42.668;23.346;2023-05-02T02:53:31;94845.13;;;12.08;94.38
5777;BME280;2914;42.668;23.346;2023-05-02T02:56:01;94844.65;;;12.22;93.68
5777;BME280;2914;42.668;23.346;2023-05-02T02:58:35;94854.47;;;12.26;93.33
5777;BME280;2914;42.668;23.346;2023-05-02T03:01:06;94856.09;;;12.13;94.18
5777;BME280;2914;42.668;23.346;2023-05-02T03:03:38;94847.09;;;12.19;93.84
5777;BME280;2914;42.668;23.346;2023-05-02T03:06:11;94858.69;;;12.32;93.08
5777;BME280;2914;42.668;23.346;2023-05-02T03:11:25;94872.53;;;12.30;93.87
5777;BME280;2914;42.668;23.346;2023-05-02T03:16:38;94869.99;;;12.38;93.17
5777;BME280;2914;42.668;23.346;2023-05-02T03:21:46;94882.56;;;12.64;91.55
5777;BME280;2914;42.668;23.346;2023-05-02T03:24:15;94882.01;;;12.75;90.82
5777;BME280;2914;42.668;23.346;2023-05-02T03:26:44;94883.16;;;12.86;90.18
5777;BME280;2914;42.668;23.346;2023-05-02T03:29:14;94885.01;;;12.62;90.85
5777;BME280;2914;42.668;23.346;2023-05-02T03:31:44;94897.31;;;12.67;90.84
5777;BME280;2914;42.668;23.346;2023-05-02T03:34:13;94892.44;;;12.76;90.04
5777;BME280;2914;42.668;23.346;2023-05-02T03:36:42;94897.12;;;12.64;90.26
5777;BME280;2914;42.668;23.346;2023-05-02T03:39:11;94897.16;;;12.54;91.05
5777;BME280;2914;42.668;23.346;2023-05-02T03:41:40;94895.16;;;12.29;92.55
5777;BME280;2914;42.668;23.346;2023-05-02T03:44:10;94892.70;;;12.17;93.51
5777;BME280;2914;42.668;23.346;2023-05-02T03:46:39;94890.38;;;12.18;94.00
5777;BME280;2914;42.668;23.346;2023-05-02T03:49:08;94894.87;;;12.32;93.16
5777;BME280;2914;42.668;23.346;2023-05-02T03:51:37;94897.00;;;12.42;92.17
5777;BME280;2914;42.668;23.346;2023-05-02T03:54:07;94897.27;;;12.49;92.24
5777;BME280;2914;42.668;23.346;2023-05-02T03:56:36;94895.53;;;12.44;91.91
5777;BME280;2914;42.668;23.346;2023-05-02T03:59:05;94901.27;;;12.29;92.94
5777;BME280;2914;42.668;23.346;2023-05-02T04:01:34;94902.33;;;12.32;93.25
5777;BME280;2914;42.668;23.346;2023-05-02T04:04:04;94896.61;;;12.65;92.02
5777;BME280;2914;42.668;23.346;2023-05-02T04:06:33;94895.29;;;12.79;90.54
5777;BME280;2914;42.668;23.346;2023-05-02T04:09:02;94893.92;;;12.75;90.23
5777;BME280;2914;42.668;23.346;2023-05-02T04:11:31;94897.98;;;12.69;90.30
5777;BME280;2914;42.668;23.346;2023-05-02T04:14:00;94897.73;;;12.62;90.98
5777;BME280;2914;42.668;23.346;2023-05-02T04:16:29;94902.06;;;12.77;89.83
5777;BME280;2914;42.668;23.346;2023-05-02T04:18:58;94906.02;;;12.91;88.71
5777;BME280;2914;42.668;23.346;2023-05-02T04:21:26;94894.17;;;12.67;90.13
5777;BME280;2914;42.668;23.346;2023-05-02T04:23:55;94895.02;;;12.96;88.44
5777;BME280;2914;42.668;23.346;2023-05-02T04:26:25;94896.78;;;13.09;87.56
5777;BME280;2914;42.668;23.346;2023-05-02T04:28:54;94902.04;;;13.05;87.29
5777;BME280;2914;42.668;23.346;2023-05-02T04:31:23;94904.19;;;12.87;87.53
5777;BME280;2914;42.668;23.346;2023-05-02T04:33:52;94899.18;;;12.98;87.34
5777;BME280;2914;42.668;23.346;2023-05-02T04:36:21;94907.08;;;13.26;86.62
5777;BME280;2914;42.668;23.346;2023-05-02T04:38:50;94910.83;;;13.51;84.64
5777;BME280;2914;42.668;23.346;2023-05-02T04:41:19;94909.64;;;13.68;82.40
5777;BME280;2914;42.668;23.346;2023-05-02T04:43:48;94916.31;;;13.54;82.35
5777;BME280;2914;42.668;23.346;2023-05-02T04:46:17;94919.31;;;13.37;83.88
5777;BME280;2914;42.668;23.346;2023-05-02T04:48:46;94916.66;;;13.37;83.53
5777;BME280;2914;42.668;23.346;2023-05-02T04:53:52;94909.73;;;13.26;82.95
5777;BME280;2914;42.668;23.346;2023-05-02T04:58:58;94913.66;;;13.22;83.08
5777;BME280;2914;42.668;23.346;2023-05-02T05:01:28;94909.81;;;13.02;83.44
5777;BME280;2914;42.668;23.346;2023-05-02T05:03:57;94919.08;;;13.02;83.10
5777;BME280;2914;42.668;23.346;2023-05-02T05:06:26;94915.72;;;13.14;82.93
5777;BME280;2914;42.668;23.346;2023-05-02T05:08:55;94917.72;;;13.30;81.81
5777;BME280;2914;42.668;23.346;2023-05-02T05:11:25;94919.39;;;13.31;81.41
5777;BME280;2914;42.668;23.346;2023-05-02T05:13:55;94916.75;;;13.31;81.53
5777;BME280;2914;42.668;23.346;2023-05-02T05:16:24;94918.27;;;13.48;80.23
5777;BME280;2914;42.668;23.346;2023-05-02T05:18:54;94906.62;;;13.45;79.71
5777;BME280;2914;42.668;23.346;2023-05-02T05:24:00;94918.66;;;13.39;79.17
5777;BME280;2914;42.668;23.346;2023-05-02T05:26:29;94911.84;;;13.36;78.84
5777;BME280;2914;42.668;23.346;2023-05-02T05:28:58;94918.34;;;13.56;77.21
5777;BME280;2914;42.668;23.346;2023-05-02T05:31:27;94932.18;;;13.50;77.38
5777;BME280;2914;42.668;23.346;2023-05-02T05:33:56;94927.78;;;13.40;78.05
5777;BME280;2914;42.668;23.346;2023-05-02T05:36:26;94924.77;;;13.35;78.08
5777;BME280;2914;42.668;23.346;2023-05-02T05:41:38;94932.69;;;13.49;77.98
5777;BME280;2914;42.668;23.346;2023-05-02T05:44:07;94937.36;;;13.55;77.63
5777;BME280;2914;42.668;23.346;2023-05-02T05:46:36;94940.91;;;13.60;76.81
5777;BME280;2914;42.668;23.346;2023-05-02T05:49:05;94946.84;;;13.58;76.75
5777;BME280;2914;42.668;23.346;2023-05-02T05:54:13;94938.32;;;13.86;75.78
5777;BME280;2914;42.668;23.346;2023-05-02T05:56:42;94938.42;;;13.99;75.14
5777;BME280;2914;42.668;23.346;2023-05-02T05:59:10;94940.25;;;14.24;73.25
5777;BME280;2914;42.668;23.346;2023-05-02T06:01:39;94941.47;;;14.30;72.58
5777;BME280;2914;42.668;23.346;2023-05-02T06:04:09;94945.68;;;14.19;72.13
5777;BME280;2914;42.668;23.346;2023-05-02T06:06:38;94954.49;;;14.19;72.13
5777;BME280;2914;42.668;23.346;2023-05-02T06:09:07;94956.57;;;14.34;72.03
5777;BME280;2914;42.668;23.346;2023-05-02T06:11:37;94954.38;;;14.51;70.89
5777;BME280;2914;42.668;23.346;2023-05-02T06:14:06;94952.19;;;14.69;69.82
5777;BME280;2914;42.668;23.346;2023-05-02T06:16:35;94949.43;;;14.83;68.89
5777;BME280;2914;42.668;23.346;2023-05-02T06:19:04;94959.18;;;14.78;69.10
5777;BME280;2914;42.668;23.346;2023-05-02T06:21:34;94947.86;;;14.68;69.04
5777;BME280;2914;42.668;23.346;2023-05-02T06:24:04;94947.59;;;14.83;68.06
5777;BME280;2914;42.668;23.346;2023-05-02T06:26:33;94951.77;;;14.86;67.75
5777;BME280;2914;42.668;23.346;2023-05-02T06:29:02;94939.86;;;14.98;67.09
5777;BME280;2914;42.668;23.346;2023-05-02T06:31:31;94939.36;;;14.99;66.19
5777;BME280;2914;42.668;23.346;2023-05-02T06:34:00;94949.80;;;14.88;67.17
5777;BME280;2914;42.668;23.346;2023-05-02T06:36:30;94953.81;;;14.96;66.34
5777;BME280;2914;42.668;23.346;2023-05-02T06:38:59;94947.88;;;15.10;66.27
5777;BME280;2914;42.668;23.346;2023-05-02T06:41:28;94945.13;;;15.33;66.02
5777;BME280;2914;42.668;23.346;2023-05-02T06:43:57;94948.02;;;15.60;64.32
5777;BME280;2914;42.668;23.346;2023-05-02T06:46:29;94945.47;;;15.34;64.13
5777;BME280;2914;42.668;23.346;2023-05-02T06:48:58;94938.66;;;15.35;64.30
5777;BME280;2914;42.668;23.346;2023-05-02T06:51:27;94931.69;;;15.38;63.99
5777;BME280;2914;42.668;23.346;2023-05-02T06:53:58;94940.34;;;15.36;63.84
5777;BME280;2914;42.668;23.346;2023-05-02T06:56:27;94929.03;;;15.42;62.96
5777;BME280;2914;42.668;23.346;2023-05-02T06:58:56;94936.75;;;15.66;61.82
5777;BME280;2914;42.668;23.346;2023-05-02T07:01:25;94940.11;;;15.89;61.27
5777;BME280;2914;42.668;23.346;2023-05-02T07:03:54;94935.61;;;15.89;61.65
5777;BME280;2914;42.668;23.346;2023-05-02T07:06:23;94938.95;;;16.00;60.22
5777;BME280;2914;42.668;23.346;2023-05-02T07:08:53;94931.80;;;16.08;60.11
5777;BME280;2914;42.668;23.346;2023-05-02T07:11:23;94930.45;;;16.25;58.96
5777;BME280;2914;42.668;23.346;2023-05-02T07:13:52;94927.30;;;16.30;59.05
5777;BME280;2914;42.668;23.346;2023-05-02T07:16:21;94925.98;;;16.05;58.31
5777;BME280;2914;42.668;23.346;2023-05-02T07:18:50;94929.97;;;16.30;57.69
5777;BME280;2914;42.668;23.346;2023-05-02T07:21:19;94927.61;;;16.31;57.23
5777;BME280;2914;42.668;23.346;2023-05-02T07:23:48;94925.28;;;16.36;56.16
5777;BME280;2914;42.668;23.346;2023-05-02T07:26:17;94933.94;;;16.46;56.82
5777;BME280;2914;42.668;23.346;2023-05-02T07:28:47;94937.59;;;16.41;56.05
5777;BME280;2914;42.668;23.346;2023-05-02T07:31:16;94945.39;;;16.55;55.97
5777;BME280;2914;42.668;23.346;2023-05-02T07:36:29;94936.38;;;16.68;54.77
5777;BME280;2914;42.668;23.346;2023-05-02T07:38:59;94925.34;;;16.84;53.98
5777;BME280;2914;42.668;23.346;2023-05-02T07:41:28;94927.91;;;16.60;53.76
5777;BME280;2914;42.668;23.346;2023-05-02T07:43:57;94929.40;;;16.63;54.39
5777;BME280;2914;42.668;23.346;2023-05-02T07:46:26;94926.02;;;16.94;54.07
5777;BME280;2914;42.668;23.346;2023-05-02T07:48:55;94930.73;;;17.19;53.05
5777;BME280;2914;42.668;23.346;2023-05-02T07:51:24;94929.52;;;17.30;52.79
5777;BME280;2914;42.668;23.346;2023-05-02T07:53:53;94944.12;;;17.42;52.33
5777;BME280;2914;42.668;23.346;2023-05-02T07:56:24;94943.33;;;17.29;52.03
5777;BME280;2914;42.668;23.346;2023-05-02T07:58:53;94948.34;;;17.33;52.24
5777;BME280;2914;42.668;23.346;2023-05-02T08:01:22;94939.92;;;17.48;51.66
5777;BME280;2914;42.668;23.346;2023-05-02T08:03:51;94932.13;;;17.42;51.35
5777;BME280;2914;42.668;23.346;2023-05-02T08:06:20;94933.61;;;17.45;51.20
5777;BME280;2914;42.668;23.346;2023-05-02T08:08:49;94940.94;;;17.43;51.58
5777;BME280;2914;42.668;23.346;2023-05-02T08:11:19;94926.79;;;17.42;51.29
5777;BME280;2914;42.668;23.346;2023-05-02T08:13:48;94934.27;;;17.43;51.59
5777;BME280;2914;42.668;23.346;2023-05-02T08:16:17;94933.09;;;17.45;51.50
5777;BME280;2914;42.668;23.346;2023-05-02T08:18:47;94932.00;;;17.63;51.60
5777;BME280;2914;42.668;23.346;2023-05-02T08:21:16;94931.02;;;17.83;50.48
5777;BME280;2914;42.668;23.346;2023-05-02T08:23:45;94939.33;;;17.61;50.64
5777;BME280;2914;42.668;23.346;2023-05-02T08:26:14;94933.67;;;17.64;50.41
5777;BME280;2914;42.668;23.346;2023-05-02T08:28:44;94931.71;;;17.81;49.80
5777;BME280;2914;42.668;23.346;2023-05-02T08:31:13;94925.07;;;17.77;49.09
5777;BME280;2914;42.668;23.346;2023-05-02T08:33:42;94938.72;;;17.55;50.14
5777;BME280;2914;42.668;23.346;2023-05-02T08:36:13;94920.33;;;17.64;49.51
5777;BME280;2914;42.668;23.346;2023-05-02T08:38:43;94941.81;;;17.90;49.21
5777;BME280;2914;42.668;23.346;2023-05-02T08:41:13;94935.32;;;17.88;48.30
5777;BME280;2914;42.668;23.346;2023-05-02T08:43:44;94933.63;;;17.95;49.28
5777;BME280;2914;42.668;23.346;2023-05-02T08:48:54;94922.63;;;18.18;48.35
5777;BME280;2914;42.668;23.346;2023-05-02T08:51:25;94929.79;;;18.17;48.06
5777;BME280;2914;42.668;23.346;2023-05-02T08:53:56;94924.73;;;18.03;48.17
5777;BME280;2914;42.668;23.346;2023-05-02T08:56:26;94930.13;;;18.18;47.99
5777;BME280;2914;42.668;23.346;2023-05-02T08:58:55;94922.81;;;18.12;46.99
5777;BME280;2914;42.668;23.346;2023-05-02T09:01:26;94920.92;;;18.21;47.22
5777;BME280;2914;42.668;23.346;2023-05-02T09:03:54;94912.95;;;18.17;46.81
5777;BME280;2914;42.668;23.346;2023-05-02T09:06:26;94917.09;;;18.00;47.14
5777;BME280;2914;42.668;23.346;2023-05-02T09:08:58;94911.50;;;18.10;47.37
5777;BME280;2914;42.668;23.346;2023-05-02T09:11:29;94907.06;;;18.21;46.97
5777;BME280;2914;42.668;23.346;2023-05-02T09:13:58;94936.69;;;18.30;46.95
5777;BME280;2914;42.668;23.346;2023-05-02T09:16:30;94910.51;;;18.30;46.69
5777;BME280;2914;42.668;23.346;2023-05-02T09:19:00;94911.10;;;18.17;46.76
5777;BME280;2914;42.668;23.346;2023-05-02T09:21:37;94904.54;;;18.24;46.75
5777;BME280;2914;42.668;23.346;2023-05-02T09:24:16;94905.39;;;18.39;45.97
5777;BME280;2914;42.668;23.346;2023-05-02T09:26:56;94910.31;;;18.51;45.76
5777;BME280;2914;42.668;23.346;2023-05-02T09:29:25;94910.13;;;18.52;45.49
5777;BME280;2914;42.668;23.346;2023-05-02T09:31:55;94907.31;;;18.50;45.33
5777;BME280;2914;42.668;23.346;2023-05-02T09:34:24;94909.36;;;18.43;44.50
5777;BME280;2914;42.668;23.346;2023-05-02T09:36:53;94895.86;;;18.41;45.19
5777;BME280;2914;42.668;23.346;2023-05-02T09:39:24;94896.06;;;18.54;44.56
5777;BME280;2914;42.668;23.346;2023-05-02T09:41:53;94912.61;;;18.54;44.50
5777;BME280;2914;42.668;23.346;2023-05-02T09:44:24;94892.18;;;18.42;44.13
5777;BME280;2914;42.668;23.346;2023-05-02T09:46:54;94900.64;;;18.30;44.33
5777;BME280;2914;42.668;23.346;2023-05-02T09:52:22;94888.56;;;18.54;43.32
5777;BME280;2914;42.668;23.346;2023-05-02T09:54:51;94891.26;;;18.35;44.16
5777;BME280;2914;42.668;23.346;2023-05-02T09:57:22;94871.75;;;18.34;44.08
5777;BME280;2914;42.668;23.346;2023-05-02T09:59:56;94905.49;;;18.46;43.90
5777;BME280;2914;42.668;23.346;2023-05-02T10:02:26;94878.02;;;18.56;43.53
5777;BME280;2914;42.668;23.346;2023-05-02T10:04:57;94868.40;;;18.66;43.36
5777;BME280;2914;42.668;23.346;2023-05-02T10:07:28;94875.31;;;18.75;42.77
5777;BME280;2914;42.668;23.346;2023-05-02T10:09:58;94860.50;;;18.88;43.33
5777;BME280;2914;42.668;23.346;2023-05-02T10:12:30;94876.90;;;18.65;42.67
5777;BME280;2914;42.668;23.346;2023-05-02T10:15:02;94867.06;;;18.66;43.00
5777;BME280;2914;42.668;23.346;2023-05-02T10:17:39;94855.41;;;18.63;42.44
5777;BME280;2914;42.668;23.346;2023-05-02T10:22:45;94849.93;;;18.75;42.22
5777;BME280;2914;42.668;23.346;2023-05-02T10:25:15;94848.94;;;18.72;42.33
5777;BME280;2914;42.668;23.346;2023-05-02T10:27:45;94854.03;;;18.67;41.78
5777;BME280;2914;42.668;23.346;2023-05-02T10:30:14;94847.55;;;18.76;42.29
5777;BME280;2914;42.668;23.346;2023-05-02T10:32:45;94844.16;;;18.82;41.95
5777;BME280;2914;42.668;23.346;2023-05-02T10:35:16;94842.94;;;18.89;41.70
5777;BME280;2914;42.668;23.346;2023-05-02T10:37:45;94850.27;;;18.87;41.45
5777;BME280;2914;42.668;23.346;2023-05-02T10:40:15;94832.00;;;18.95;41.78
5777;BME280;2914;42.668;23.346;2023-05-02T10:42:46;94828.56;;;19.01;42.11
5777;BME280;2914;42.668;23.346;2023-05-02T10:45:31;94824.97;;;19.09;41.87
5777;BME280;2914;42.668;23.346;2023-05-02T10:48:17;94831.08;;;19.13;41.57
5777;BME280;2914;42.668;23.346;2023-05-02T10:50:48;94837.34;;;19.21;41.26
5777;BME280;2914;42.668;23.346;2023-05-02T10:56:20;94819.70;;;19.15;41.62
5777;BME280;2914;42.668;23.346;2023-05-02T10:58:52;94822.64;;;19.21;40.83
5777;BME280;2914;42.668;23.346;2023-05-02T11:01:37;94823.53;;;19.28;41.01
5777;BME280;2914;42.668;23.346;2023-05-02T11:04:08;94816.39;;;19.24;40.73
5777;BME280;2914;42.668;23.346;2023-05-02T11:09:33;94806.42;;;19.33;40.74
5777;BME280;2914;42.668;23.346;2023-05-02T11:12:03;94813.86;;;19.38;41.03
5777;BME280;2914;42.668;23.346;2023-05-02T11:14:46;94827.91;;;19.36;41.25
5777;BME280;2914;42.668;23.346;2023-05-02T11:17:18;94809.25;;;19.31;40.94
5777;BME280;2914;42.668;23.346;2023-05-02T11:22:50;94809.09;;;18.96;41.04
5777;BME280;2914;42.668;23.346;2023-05-02T11:25:30;94809.99;;;19.04;41.66
5777;BME280;2914;42.668;23.346;2023-05-02T11:28:00;94813.64;;;19.18;41.66
5777;BME280;2914;42.668;23.346;2023-05-02T11:30:40;94803.80;;;19.29;41.46
5777;BME280;2914;42.668;23.346;2023-05-02T11:33:15;94810.09;;;19.21;41.24
5777;BME280;2914;42.668;23.346;2023-05-02T11:35:46;94809.58;;;19.32;41.35
5777;BME280;2914;42.668;23.346;2023-05-02T11:38:20;94805.13;;;19.40;40.98
5777;BME280;2914;42.668;23.346;2023-05-02T11:40:53;94807.17;;;19.38;40.53
5777;BME280;2914;42.668;23.346;2023-05-02T11:43:24;94811.93;;;19.31;40.90
5777;BME280;2914;42.668;23.346;2023-05-02T11:45:54;94797.16;;;19.14;41.52
5777;BME280;2914;42.668;23.346;2023-05-02T11:48:25;94787.82;;;19.25;41.59
5777;BME280;2914;42.668;23.346;2023-05-02T11:50:57;94781.17;;;19.31;41.73
5777;BME280;2914;42.668;23.346;2023-05-02T11:53:28;94778.08;;;19.49;41.54
5777;BME280;2914;42.668;23.346;2023-05-02T11:56:00;94800.75;;;19.54;41.29
5777;BME280;2914;42.668;23.346;2023-05-02T11:58:30;94787.37;;;19.43;41.03
5777;BME280;2914;42.668;23.346;2023-05-02T12:01:14;94789.86;;;19.44;41.51
5777;BME280;2914;42.668;23.346;2023-05-02T12:03:43;94794.55;;;19.42;41.35
5777;BME280;2914;42.668;23.346;2023-05-02T12:06:16;94791.62;;;19.48;41.48
5777;BME280;2914;42.668;23.346;2023-05-02T12:08:46;94782.14;;;19.24;41.42
5777;BME280;2914;42.668;23.346;2023-05-02T12:11:16;94770.55;;;19.38;41.41
5777;BME280;2914;42.668;23.346;2023-05-02T12:13:46;94765.65;;;19.53;41.52
5777;BME280;2914;42.668;23.346;2023-05-02T12:16:16;94770.80;;;19.54;40.98
5777;BME280;2914;42.668;23.346;2023-05-02T12:18:46;94769.34;;;19.41;41.04
5777;BME280;2914;42.668;23.346;2023-05-02T12:21:16;94757.23;;;19.45;40.91
5777;BME280;2914;42.668;23.346;2023-05-02T12:23:46;94766.60;;;19.45;40.79
5777;BME280;2914;42.668;23.346;2023-05-02T12:26:20;94756.23;;;19.46;40.49
5777;BME280;2914;42.668;23.346;2023-05-02T12:28:52;94765.45;;;19.32;40.71
5777;BME280;2914;42.668;23.346;2023-05-02T12:31:22;94755.15;;;19.40;40.53
5777;BME280;2914;42.668;23.346;2023-05-02T12:33:51;94757.23;;;19.45;40.08
5777;BME280;2914;42.668;23.346;2023-05-02T12:36:22;94747.94;;;19.52;40.05
5777;BME280;2914;42.668;23.346;2023-05-02T12:38:53;94737.91;;;19.60;40.06
5777;BME280;2914;42.668;23.346;2023-05-02T12:41:32;94734.86;;;19.74;39.73
5777;BME280;2914;42.668;23.346;2023-05-02T12:44:01;94752.61;;;19.71;39.45
5777;BME280;2914;42.668;23.346;2023-05-02T12:46:31;94723.48;;;19.44;38.94
5777;BME280;2914;42.668;23.346;2023-05-02T12:49:04;94744.18;;;19.57;39.19
5777;BME280;2914;42.668;23.346;2023-05-02T12:51:34;94718.09;;;19.65;38.75
5777;BME280;2914;42.668;23.346;2023-05-02T12:54:04;94724.47;;;19.64;38.58
5777;BME280;2914;42.668;23.346;2023-05-02T12:56:39;94711.48;;;19.61;38.83
5777;BME280;2914;42.668;23.346;2023-05-02T12:59:11;94730.86;;;19.63;38.57
5777;BME280;2914;42.668;23.346;2023-05-02T13:01:41;94717.70;;;19.69;38.88
5777;BME280;2914;42.668;23.346;2023-05-02T13:04:10;94712.06;;;19.68;38.84
5777;BME280;2914;42.668;23.346;2023-05-02T13:06:39;94720.37;;;19.51;38.83
5777;BME280;2914;42.668;23.346;2023-05-02T13:09:08;94710.82;;;19.42;39.11
5777;BME280;2914;42.668;23.346;2023-05-02T13:11:38;94688.34;;;19.47;39.11
5777;BME280;2914;42.668;23.346;2023-05-02T13:14:07;94718.97;;;19.44;38.68
5777;BME280;2914;42.668;23.346;2023-05-02T13:16:38;94726.06;;;19.30;38.58
5777;BME280;2914;42.668;23.346;2023-05-02T13:19:07;94734.69;;;19.11;38.88
5777;BME280;2914;42.668;23.346;2023-05-02T13:21:36;94725.34;;;19.22;38.92
5777;BME280;2914;42.668;23.346;2023-05-02T13:24:06;94729.94;;;19.28;39.01
5777;BME280;2914;42.668;23.346;2023-05-02T13:26:35;94736.88;;;19.22;38.79
5777;BME280;2914;42.668;23.346;2023-05-02T13:29:04;94724.00;;;19.11;38.67
5777;BME280;2914;42.668;23.346;2023-05-02T13:31:33;94719.80;;;19.23;38.96
5777;BME280;2914;42.668;23.346;2023-05-02T13:34:03;94730.23;;;19.40;38.81
5777;BME280;2914;42.668;23.346;2023-05-02T13:36:33;94728.95;;;19.46;38.57
5777;BME280;2914;42.668;23.346;2023-05-02T13:39:04;94712.78;;;19.44;38.45
5777;BME280;2914;42.668;23.346;2023-05-02T13:41:33;94708.73;;;19.37;38.07
5777;BME280;2914;42.668;23.346;2023-05-02T13:44:02;94716.05;;;19.28;38.21
5777;BME280;2914;42.668;23.346;2023-05-02T13:46:31;94714.31;;;19.42;38.42
5777;BME280;2914;42.668;23.346;2023-05-02T13:49:02;94712.91;;;19.36;38.49
5777;BME280;2914;42.668;23.346;2023-05-02T13:51:32;94727.06;;;19.40;38.03
5777;BME280;2914;42.668;23.346;2023-05-02T13:54:01;94713.89;;;19.39;38.31
5777;BME280;2914;42.668;23.346;2023-05-02T13:56:30;94711.70;;;19.38;38.20
5777;BME280;2914;42.668;23.346;2023-05-02T13:58:59;94701.66;;;19.40;37.96
5777;BME280;2914;42.668;23.346;2023-05-02T14:01:28;94707.63;;;19.31;37.99
5777;BME280;2914;42.668;23.346;2023-05-02T14:03:57;94716.17;;;19.31;37.96
5777;BME280;2914;42.668;23.346;2023-05-02T14:06:27;94723.06;;;19.19;37.78
5777;BME280;2914;42.668;23.346;2023-05-02T14:08:56;94716.70;;;19.20;37.99
5777;BME280;2914;42.668;23.346;2023-05-02T14:11:25;94710.95;;;19.12;37.98
5777;BME280;2914;42.668;23.346;2023-05-02T14:13:54;94718.53;;;19.19;38.02
5777;BME280;2914;42.668;23.346;2023-05-02T14:16:24;94717.19;;;19.19;37.84